This is the latest recevied weather packets stored in our database for station/object N3DOU-1. If no packets are shown the sender has not sent any weather packets the latest 1 day(s).
| Time | Temp. | Humidity | Pressure | Rain* | Wind** | Luminosity | Snow |
|---|---|---|---|---|---|---|---|
| 1778032583 | 20.56° C | 64% | 1010.6 hPa | 0 mm | 0 m/s | - | - |
| 1778031684 | 20.56° C | 64% | 1010.3 hPa | 0 mm | 0.45 m/s, 254° | - | - |
| 1778030784 | 20.56° C | 63% | 1010.2 hPa | 0 mm | 0.45 m/s, 283° | - | - |
| 1778029884 | 21.11° C | 61% | 1009.9 hPa | 0 mm | 0 m/s | - | - |
| 1778028984 | 21.11° C | 60% | 1009.8 hPa | 0 mm | 0 m/s | - | - |
| 1778028084 | 21.67° C | 59% | 1009.7 hPa | 0 mm | 0 m/s | - | - |
| 1778027183 | 22.22° C | 57% | 1009.6 hPa | 0 mm | 0 m/s | - | - |
| 1778026283 | 22.78° C | 54% | 1009.4 hPa | 0 mm | 0.45 m/s, 219° | - | - |
| 1778025384 | 22.78° C | 53% | 1009.2 hPa | 0 mm | 0 m/s | - | - |
| 1778023583 | 23.89° C | 50% | 1009.2 hPa | 0 mm | 0.45 m/s, 219° | - | - |
| 1778022685 | 24.44° C | 49% | 1009.2 hPa | 0 mm | 0.45 m/s, 173° | - | - |
| 1778021783 | 25.56° C | 45% | 1009.1 hPa | 0 mm | 0.45 m/s, 162° | - | - |
| 1778020884 | 26.11° C | 42% | 1009.2 hPa | 0 mm | 1.34 m/s, 205° | - | - |
| 1778019985 | 26.67° C | 40% | 1009.1 hPa | 0 mm | 3.13 m/s, 218° | - | - |
| 1778019084 | 27.22° C | 38% | 1009.2 hPa | 0 mm | 0.89 m/s, 192° | - | - |
| 1778018184 | 27.78° C | 38% | 1009.1 hPa | 0 mm | 1.34 m/s, 218° | - | - |
| 1778017285 | 27.78° C | 38% | 1009 hPa | 0 mm | 1.34 m/s, 188° | - | - |
| 1778016384 | 27.78° C | 39% | 1008.9 hPa | 0 mm | 2.24 m/s, 184° | - | - |
| 1778014583 | 28.33° C | 39% | 1009 hPa | 0 mm | 2.68 m/s, 205° | - | - |
| 1778013683 | 27.78° C | 39% | 1009 hPa | 0 mm | 3.13 m/s, 204° | - | - |
| 1778012786 | 28.33° C | 40% | 1009.1 hPa | 0 mm | 1.34 m/s, 190° | - | - |
| 1778011885 | 27.78° C | 38% | 1009.2 hPa | 0 mm | 2.68 m/s, 187° | - | - |
| 1778010983 | 28.33° C | 40% | 1009.4 hPa | 0 mm | 2.24 m/s, 199° | - | - |
| 1778008284 | 28.33° C | 41% | 1009.8 hPa | 0 mm | 3.13 m/s, 199° | - | - |
| 1778007384 | 28.33° C | 40% | 1010 hPa | 0 mm | 2.24 m/s, 220° | - | - |
* Rain latest hour (hover to see other rain measurements)
** Current wind speed in m/s (hover to see current wind gust speed)